Time;durP1;ratioP1;P1;durP2;ratioP2;P2;SDS_P1;SDS_P2;PMS_P1;PMS_P2;Temp;Humidity;BMP_temperature;BMP_pressure;BME280_temperature;BME280_humidity;BME280_pressure;Samples;Min_cycle;Max_cycle;Signal;HPM_P1;HPM_P2
2024/01/25 00:01:21;;;;;;;4.32;4.03;;;4.60;99.90;;;;;;5061087;28;20943;-76
2024/01/25 00:03:48;;;;;;;4.72;4.32;;;4.60;99.90;;;;;;5058242;28;20216;-76
2024/01/25 00:06:15;;;;;;;4.13;3.83;;;4.60;99.90;;;;;;5059151;28;21252;-76
2024/01/25 00:08:44;;;;;;;4.15;3.85;;;4.60;99.90;;;;;;5059995;28;20233;-75
2024/01/25 00:11:11;;;;;;;4.55;4.18;;;4.60;99.90;;;;;;5060931;28;20218;-76
2024/01/25 00:13:38;;;;;;;4.10;3.78;;;4.60;99.90;;;;;;5062740;28;20283;-75
2024/01/25 00:16:06;;;;;;;4.55;4.22;;;4.50;99.90;;;;;;5060675;28;20218;-76
2024/01/25 00:18:33;;;;;;;4.20;3.90;;;4.50;99.90;;;;;;5058775;28;20308;-77
2024/01/25 00:21:00;;;;;;;4.18;3.88;;;4.50;99.90;;;;;;5060548;28;20704;-75
2024/01/25 00:23:27;;;;;;;3.70;3.40;;;4.40;99.90;;;;;;5058974;28;20680;-75
2024/01/25 00:25:58;;;;;;;3.72;3.50;;;4.50;99.90;;;;;;5061938;28;20218;-77
2024/01/25 00:28:25;;;;;;;4.13;3.83;;;4.50;99.90;;;;;;5062925;28;21013;-76
2024/01/25 00:30:52;;;;;;;4.25;3.97;;;4.50;99.90;;;;;;5061546;28;20241;-75
2024/01/25 00:33:19;;;;;;;4.70;4.30;;;4.50;99.90;;;;;;5060507;28;20292;-76
2024/01/25 00:35:46;;;;;;;4.32;4.00;;;4.60;99.90;;;;;;5060492;28;20303;-76
2024/01/25 00:38:14;;;;;;;4.15;3.85;;;4.50;99.90;;;;;;5061358;28;20360;-77
2024/01/25 00:40:41;;;;;;;4.18;3.97;;;4.40;99.90;;;;;;5056791;28;20743;-75
2024/01/25 00:43:11;;;;;;;4.72;4.43;;;4.40;99.90;;;;;;5057971;28;20294;-76
2024/01/25 00:45:38;;;;;;;4.00;3.70;;;4.40;99.90;;;;;;5056671;28;20310;-76
2024/01/25 00:48:06;;;;;;;4.10;3.80;;;4.40;99.90;;;;;;5059439;28;20268;-75
2024/01/25 00:50:34;;;;;;;4.70;4.30;;;4.40;99.90;;;;;;5058821;28;20296;-75
2024/01/25 00:53:01;;;;;;;4.47;4.07;;;4.30;99.90;;;;;;5059458;28;20234;-76
2024/01/25 00:55:29;;;;;;;4.40;4.10;;;4.30;99.90;;;;;;5060594;28;20246;-76
2024/01/25 00:57:56;;;;;;;4.32;4.03;;;4.20;99.90;;;;;;5059451;28;20222;-76
2024/01/25 01:00:26;;;;;;;4.40;4.10;;;4.20;99.90;;;;;;5056512;28;20245;-76
2024/01/25 01:02:54;;;;;;;4.25;3.95;;;4.20;99.90;;;;;;5057624;28;20207;-76
2024/01/25 01:05:21;;;;;;;3.97;3.72;;;4.20;99.90;;;;;;5064308;28;20306;-76
2024/01/25 01:07:49;;;;;;;3.90;3.70;;;4.10;99.90;;;;;;5059918;28;20207;-76
2024/01/25 01:10:16;;;;;;;4.35;4.05;;;4.10;99.90;;;;;;5058677;28;20246;-77
2024/01/25 01:12:42;;;;;;;4.82;4.32;;;4.10;99.90;;;;;;5056920;28;20648;-76
2024/01/25 01:15:10;;;;;;;4.72;4.43;;;4.10;99.90;;;;;;5059443;28;20246;-76
2024/01/25 01:17:38;;;;;;;4.28;3.97;;;4.00;99.90;;;;;;5062307;28;20696;-76
2024/01/25 01:20:06;;;;;;;4.07;3.75;;;3.90;99.90;;;;;;5058119;28;20297;-76
2024/01/25 01:22:33;;;;;;;4.78;4.38;;;3.90;99.90;;;;;;5057362;28;20310;-76
2024/01/25 01:25:00;;;;;;;4.28;3.97;;;4.00;99.90;;;;;;5057831;28;20253;-76
2024/01/25 01:27:27;;;;;;;4.07;3.78;;;4.00;99.90;;;;;;5053875;28;20247;-75
2024/01/25 01:29:54;;;;;;;3.88;3.67;;;4.10;99.90;;;;;;5058100;28;20237;-75
2024/01/25 01:32:21;;;;;;;4.35;4.05;;;4.10;99.90;;;;;;5058617;28;20279;-76
2024/01/25 01:34:49;;;;;;;4.10;3.78;;;4.10;99.90;;;;;;5056208;28;20907;-76
2024/01/25 01:37:16;;;;;;;4.40;4.10;;;4.10;99.90;;;;;;5054256;28;20250;-77
2024/01/25 01:39:44;;;;;;;4.30;4.00;;;4.10;99.90;;;;;;5058266;28;20226;-76
2024/01/25 01:42:10;;;;;;;4.30;4.00;;;4.20;99.90;;;;;;5057268;28;20646;-76
2024/01/25 01:44:37;;;;;;;3.97;3.78;;;4.20;99.90;;;;;;5053893;28;20242;-76
2024/01/25 01:47:05;;;;;;;4.20;3.90;;;4.20;99.90;;;;;;5062049;28;20287;-77
2024/01/25 01:49:32;;;;;;;4.07;3.80;;;4.10;99.90;;;;;;5056485;28;20884;-75
2024/01/25 01:52:00;;;;;;;4.78;4.38;;;4.10;99.90;;;;;;5060821;28;20229;-77
2024/01/25 01:54:27;;;;;;;4.10;3.80;;;4.10;99.90;;;;;;5060253;28;20291;-75
2024/01/25 01:56:54;;;;;;;4.38;3.97;;;4.10;99.90;;;;;;5059430;28;20249;-76
2024/01/25 01:59:21;;;;;;;3.90;3.70;;;4.00;99.90;;;;;;5056727;28;20257;-75
2024/01/25 02:01:48;;;;;;;4.68;4.28;;;4.10;99.90;;;;;;5055881;28;20277;-75
2024/01/25 02:04:15;;;;;;;4.10;3.83;;;4.10;99.90;;;;;;5057868;28;20757;-76
2024/01/25 02:06:44;;;;;;;3.90;3.60;;;4.10;99.90;;;;;;5055680;28;20249;-75
2024/01/25 02:09:12;;;;;;;4.53;4.22;;;4.10;99.90;;;;;;5054303;28;20202;-76
2024/01/25 02:11:39;;;;;;;3.90;3.60;;;4.10;99.90;;;;;;5058400;28;20287;-75
2024/01/25 02:14:10;;;;;;;4.38;4.07;;;4.10;99.90;;;;;;5058287;28;20687;-76
2024/01/25 02:16:37;;;;;;;4.32;4.03;;;4.10;99.90;;;;;;5057328;28;20217;-76
2024/01/25 02:19:04;;;;;;;3.60;3.40;;;4.10;99.90;;;;;;5057078;28;20310;-76
2024/01/25 02:21:31;;;;;;;4.60;4.20;;;4.10;99.90;;;;;;5056698;28;20982;-75
2024/01/25 02:23:59;;;;;;;4.20;3.90;;;4.10;99.90;;;;;;5056364;28;20237;-76
2024/01/25 02:26:26;;;;;;;5.10;4.70;;;4.00;99.90;;;;;;5057270;28;20276;-75
2024/01/25 02:28:53;;;;;;;5.22;4.82;;;3.90;99.90;;;;;;5059382;28;20836;-75
2024/01/25 02:31:20;;;;;;;5.45;4.90;;;3.70;99.90;;;;;;5054483;28;20268;-77
2024/01/25 02:33:48;;;;;;;5.13;4.75;;;3.60;99.90;;;;;;5050482;28;20292;-76
2024/01/25 02:36:15;;;;;;;4.45;4.15;;;3.50;99.90;;;;;;5052912;28;20316;-76
2024/01/25 02:38:42;;;;;;;4.70;4.40;;;3.50;99.90;;;;;;5058282;28;20653;-76
2024/01/25 02:41:10;;;;;;;4.20;3.90;;;3.50;99.90;;;;;;5055732;28;20308;-76
2024/01/25 02:43:37;;;;;;;4.65;4.22;;;3.50;99.90;;;;;;5059742;28;20253;-75
2024/01/25 02:46:04;;;;;;;4.70;4.30;;;3.50;99.90;;;;;;5059017;28;20623;-76
2024/01/25 02:48:32;;;;;;;4.80;4.40;;;3.50;99.90;;;;;;5055840;28;20206;-75
2024/01/25 02:50:59;;;;;;;4.80;4.40;;;3.50;99.90;;;;;;5056321;28;20290;-75
2024/01/25 02:53:26;;;;;;;4.15;3.88;;;3.50;99.90;;;;;;5052891;28;20226;-75
2024/01/25 02:55:53;;;;;;;4.20;3.90;;;3.60;99.90;;;;;;5056296;28;22049;-76
2024/01/25 02:58:21;;;;;;;4.03;3.72;;;3.60;99.90;;;;;;5055725;28;20757;-76
2024/01/25 03:00:48;;;;;;;4.00;3.80;;;3.60;99.90;;;;;;5051913;28;20306;-76
2024/01/25 03:03:16;;;;;;;3.95;3.70;;;3.60;99.90;;;;;;5059267;28;20198;-75
2024/01/25 03:05:43;;;;;;;4.55;4.25;;;3.60;99.90;;;;;;5053434;28;20226;-75
2024/01/25 03:08:10;;;;;;;4.25;3.95;;;3.60;99.90;;;;;;5052836;28;20880;-76
2024/01/25 03:10:37;;;;;;;3.70;3.50;;;3.60;99.90;;;;;;5049909;28;20245;-76
2024/01/25 03:13:04;;;;;;;3.85;3.65;;;3.60;99.90;;;;;;5054563;28;20260;-76
2024/01/25 03:15:32;;;;;;;3.72;3.50;;;3.70;99.90;;;;;;5057219;28;21091;-75
2024/01/25 03:17:59;;;;;;;3.60;3.40;;;3.70;99.90;;;;;;5057589;28;20305;-75
2024/01/25 03:20:26;;;;;;;4.03;3.72;;;3.80;99.90;;;;;;5054559;28;20299;-75
2024/01/25 03:22:54;;;;;;;3.67;3.40;;;3.80;99.90;;;;;;5052798;28;20222;-76
2024/01/25 03:25:21;;;;;;;4.03;3.72;;;3.90;99.90;;;;;;5057867;28;20257;-76
2024/01/25 03:27:48;;;;;;;4.47;4.07;;;3.80;99.90;;;;;;5055092;28;20873;-75
2024/01/25 03:30:15;;;;;;;4.18;3.88;;;3.70;99.90;;;;;;5054499;28;20268;-76
2024/01/25 03:32:43;;;;;;;4.25;3.95;;;3.70;99.90;;;;;;5054842;28;20225;-76
2024/01/25 03:35:10;;;;;;;4.80;4.50;;;3.70;99.90;;;;;;5052519;28;21014;-78
2024/01/25 03:37:37;;;;;;;4.70;4.32;;;3.70;99.90;;;;;;5056257;28;20341;-76
2024/01/25 03:40:05;;;;;;;4.53;4.18;;;3.70;99.90;;;;;;5056449;28;20397;-76
2024/01/25 03:42:32;;;;;;;4.82;4.43;;;3.70;99.90;;;;;;5056035;28;20417;-76
2024/01/25 03:44:59;;;;;;;4.90;4.50;;;3.70;99.90;;;;;;5051429;28;20237;-75
2024/01/25 03:47:26;;;;;;;4.57;4.25;;;3.70;99.90;;;;;;5058889;28;20625;-76
2024/01/25 03:49:54;;;;;;;4.70;4.30;;;3.60;99.90;;;;;;5055155;28;20291;-76
2024/01/25 03:52:21;;;;;;;4.80;4.40;;;3.60;99.90;;;;;;5055970;28;20317;-76
2024/01/25 03:54:48;;;;;;;4.57;4.28;;;3.60;99.90;;;;;;5055216;28;20735;-75
2024/01/25 03:57:15;;;;;;;4.78;4.38;;;3.50;99.90;;;;;;5059806;28;20258;-75
2024/01/25 03:59:42;;;;;;;4.22;3.92;;;3.50;99.90;;;;;;5055476;28;20246;-76
2024/01/25 04:02:09;;;;;;;4.47;4.18;;;3.40;99.90;;;;;;5059804;28;20237;-75
2024/01/25 04:04:36;;;;;;;5.05;4.65;;;3.40;99.90;;;;;;5054739;28;20203;-76
2024/01/25 04:07:05;;;;;;;4.95;4.63;;;3.30;99.90;;;;;;5052066;28;20696;-77
2024/01/25 04:09:32;;;;;;;4.65;4.35;;;3.30;99.90;;;;;;5052420;28;20747;-77
2024/01/25 04:11:58;;;;;;;4.18;3.88;;;3.30;99.90;;;;;;5056092;28;20283;-76
2024/01/25 04:14:25;;;;;;;4.18;3.88;;;3.30;99.90;;;;;;5058092;28;20732;-75
2024/01/25 04:16:52;;;;;;;4.32;3.92;;;3.30;99.90;;;;;;5057914;28;20313;-75
2024/01/25 04:19:19;;;;;;;4.03;3.67;;;3.30;99.90;;;;;;5054808;28;20245;-76
2024/01/25 04:21:46;;;;;;;4.32;4.03;;;3.30;99.90;;;;;;5063843;28;20234;-77
2024/01/25 04:24:14;;;;;;;3.97;3.67;;;3.30;99.90;;;;;;5059765;28;20227;-76
2024/01/25 04:26:41;;;;;;;4.40;4.10;;;3.40;99.90;;;;;;5052727;28;20250;-75
2024/01/25 04:29:08;;;;;;;4.00;3.70;;;3.40;99.90;;;;;;5058918;28;20226;-76
2024/01/25 04:31:35;;;;;;;4.03;3.67;;;3.50;99.90;;;;;;5060790;28;20261;-75
2024/01/25 04:34:02;;;;;;;3.88;3.60;;;3.60;99.90;;;;;;5058953;28;20225;-76
2024/01/25 04:36:29;;;;;;;4.10;3.78;;;3.60;99.90;;;;;;5059616;28;20254;-76
2024/01/25 04:38:56;;;;;;;4.05;3.75;;;3.60;99.90;;;;;;5062678;28;20251;-76
2024/01/25 04:41:26;;;;;;;4.50;4.20;;;3.50;99.90;;;;;;5057515;28;20864;-74
2024/01/25 04:43:53;;;;;;;4.10;3.80;;;3.40;99.90;;;;;;5056281;28;20602;-76
2024/01/25 04:46:19;;;;;;;4.60;4.30;;;3.40;99.90;;;;;;5057798;28;20304;-76
2024/01/25 04:48:46;;;;;;;4.10;3.80;;;3.50;99.90;;;;;;5061305;28;21039;-76
2024/01/25 04:51:17;;;;;;;6.05;5.03;;;3.50;99.90;;;;;;5059169;28;20218;-77
2024/01/25 04:53:44;;;;;;;4.70;4.40;;;3.50;99.90;;;;;;5061783;28;20269;-75
2024/01/25 04:56:11;;;;;;;4.50;4.10;;;3.40;99.90;;;;;;5059952;28;20246;-74
2024/01/25 04:58:39;;;;;;;4.60;4.30;;;3.40;99.90;;;;;;5059254;28;20207;-77
2024/01/25 05:01:06;;;;;;;4.65;4.28;;;3.40;99.90;;;;;;5052543;28;20291;-75
2024/01/25 05:03:33;;;;;;;4.80;4.43;;;3.40;99.90;;;;;;5059024;28;20206;-75
2024/01/25 05:06:00;;;;;;;4.53;4.22;;;3.40;99.90;;;;;;5055962;28;20242;-76
2024/01/25 05:08:28;;;;;;;4.60;4.30;;;3.50;99.90;;;;;;5058980;28;20653;-76
2024/01/25 05:10:54;;;;;;;4.57;4.28;;;3.50;99.90;;;;;;5061426;28;20604;-75
2024/01/25 05:13:21;;;;;;;4.47;4.18;;;3.50;99.90;;;;;;5058857;28;20292;-75
2024/01/25 05:15:50;;;;;;;4.47;4.18;;;3.50;99.90;;;;;;5056853;28;20304;-76
2024/01/25 05:18:17;;;;;;;4.60;4.25;;;3.40;99.90;;;;;;5060047;28;20230;-76
2024/01/25 05:20:44;;;;;;;4.38;4.05;;;3.40;99.90;;;;;;5055831;28;20250;-75
2024/01/25 05:23:10;;;;;;;4.38;4.07;;;3.40;99.90;;;;;;5055984;28;20713;-76
2024/01/25 05:25:37;;;;;;;4.30;4.00;;;3.40;99.90;;;;;;5057920;28;20241;-75
2024/01/25 05:28:05;;;;;;;4.68;4.38;;;3.40;99.90;;;;;;5057759;28;20258;-75
2024/01/25 05:30:32;;;;;;;4.22;3.92;;;3.40;99.90;;;;;;5058063;28;20312;-75
2024/01/25 05:33:01;;;;;;;4.60;4.20;;;3.40;99.90;;;;;;5059135;28;20225;-76
2024/01/25 05:35:27;;;;;;;4.88;4.57;;;3.40;99.90;;;;;;5057627;28;20258;-77
2024/01/25 05:37:54;;;;;;;5.47;4.97;;;3.50;99.90;;;;;;5059454;28;21167;-77
2024/01/25 05:40:21;;;;;;;5.15;4.75;;;3.50;99.90;;;;;;5060361;28;20311;-76
2024/01/25 05:42:48;;;;;;;4.32;3.95;;;3.50;99.90;;;;;;5055539;28;20624;-76
2024/01/25 05:45:15;;;;;;;4.03;3.72;;;3.60;99.90;;;;;;5058528;28;20351;-76
2024/01/25 05:47:42;;;;;;;4.88;4.47;;;3.60;99.90;;;;;;5058572;28;20787;-74
2024/01/25 05:50:11;;;;;;;6.07;5.57;;;3.60;99.90;;;;;;5058349;28;20263;-77
2024/01/25 05:52:38;;;;;;;6.07;5.47;;;3.60;99.90;;;;;;5051674;28;20229;-77
2024/01/25 05:55:06;;;;;;;6.38;5.80;;;3.50;99.90;;;;;;5056392;28;20217;-75
2024/01/25 05:57:34;;;;;;;5.60;5.10;;;3.30;99.90;;;;;;5055860;28;20249;-74
2024/01/25 06:00:01;;;;;;;5.72;5.13;;;3.10;99.90;;;;;;5060691;28;20222;-76
2024/01/25 06:02:27;;;;;;;5.45;5.05;;;3.10;99.90;;;;;;5055047;28;20251;-76
2024/01/25 06:04:54;;;;;;;5.72;5.22;;;3.10;99.90;;;;;;5059045;28;20218;-76
2024/01/25 06:07:23;;;;;;;5.90;5.40;;;3.10;99.90;;;;;;5059038;28;20296;-76
2024/01/25 06:09:50;;;;;;;5.50;5.07;;;3.20;99.90;;;;;;5059733;28;20237;-76
2024/01/25 06:12:17;;;;;;;5.15;4.75;;;3.20;99.90;;;;;;5056171;28;20312;-75
2024/01/25 06:14:43;;;;;;;5.50;5.00;;;3.20;99.90;;;;;;5053796;28;20916;-76
2024/01/25 06:17:11;;;;;;;6.25;5.75;;;3.20;99.90;;;;;;5055895;28;20301;-77
2024/01/25 06:19:38;;;;;;;5.82;5.30;;;3.20;99.90;;;;;;5055732;28;20325;-76
2024/01/25 06:22:05;;;;;;;5.68;5.18;;;3.30;99.90;;;;;;5056212;28;20276;-76
2024/01/25 06:24:33;;;;;;;6.05;5.10;;;3.30;99.90;;;;;;5055689;28;20311;-76
2024/01/25 06:27:00;;;;;;;6.13;5.57;;;3.30;99.90;;;;;;5058650;28;20870;-76
2024/01/25 06:29:27;;;;;;;6.38;5.88;;;3.20;99.90;;;;;;5059121;28;20275;-76
2024/01/25 06:31:54;;;;;;;5.78;5.35;;;3.20;99.90;;;;;;5060397;28;20285;-76
2024/01/25 06:34:20;;;;;;;6.13;5.63;;;3.20;99.90;;;;;;5056518;28;20210;-76
2024/01/25 06:36:47;;;;;;;5.40;5.00;;;3.20;99.90;;;;;;5060213;28;20249;-75
2024/01/25 06:39:14;;;;;;;5.82;5.32;;;3.20;99.90;;;;;;5060524;28;20249;-76
2024/01/25 06:41:42;;;;;;;5.32;4.93;;;3.20;99.90;;;;;;5058503;28;20250;-77
2024/01/25 06:44:09;;;;;;;5.70;5.20;;;3.20;99.90;;;;;;5056901;28;20319;-76
2024/01/25 06:46:36;;;;;;;5.00;4.60;;;3.20;99.90;;;;;;5054426;28;20277;-77
2024/01/25 06:49:03;;;;;;;5.82;5.30;;;3.20;99.90;;;;;;5057962;28;20229;-75
2024/01/25 06:51:30;;;;;;;5.10;4.70;;;3.20;99.90;;;;;;5052993;28;20207;-76
2024/01/25 06:53:57;;;;;;;5.78;5.28;;;3.30;99.90;;;;;;5062195;28;20221;-76
2024/01/25 06:56:24;;;;;;;5.60;5.10;;;3.20;99.90;;;;;;5058674;28;20253;-76
2024/01/25 06:58:52;;;;;;;5.25;4.95;;;3.20;99.90;;;;;;5059393;28;20727;-77
2024/01/25 07:01:22;;;;;;;5.38;4.97;;;3.20;99.90;;;;;;5053971;28;20254;-76
2024/01/25 07:03:50;;;;;;;5.28;4.85;;;3.30;99.90;;;;;;5058451;28;20281;-76
2024/01/25 07:06:17;;;;;;;4.43;4.13;;;3.30;99.90;;;;;;5054327;28;20836;-77
2024/01/25 07:08:44;;;;;;;5.50;5.00;;;3.50;99.90;;;;;;5060135;28;20204;-75
2024/01/25 07:11:11;;;;;;;5.30;4.90;;;3.70;99.90;;;;;;5055233;28;20238;-76
2024/01/25 07:13:38;;;;;;;5.18;4.78;;;3.70;99.90;;;;;;5064718;28;20198;-75
2024/01/25 07:16:07;;;;;;;4.82;4.43;;;3.70;99.90;;;;;;5056682;28;20750;-76
2024/01/25 07:18:34;;;;;;;4.22;3.92;;;3.70;99.90;;;;;;5058797;28;20238;-76
2024/01/25 07:21:02;;;;;;;4.68;4.38;;;3.70;99.90;;;;;;5054738;28;20227;-77
2024/01/25 07:23:31;;;;;;;5.30;4.85;;;3.70;99.90;;;;;;5066287;28;20586;-75
2024/01/25 07:25:58;;;;;;;4.72;4.43;;;3.80;99.90;;;;;;5057022;28;20344;-76
2024/01/25 07:28:25;;;;;;;4.85;4.45;;;3.80;99.90;;;;;;5056841;28;20257;-76
2024/01/25 07:30:52;;;;;;;4.40;4.07;;;3.70;99.90;;;;;;5056971;28;20232;-76
2024/01/25 07:33:20;;;;;;;4.88;4.47;;;3.70;99.90;;;;;;5056263;28;20248;-76
2024/01/25 07:35:47;;;;;;;8.27;4.82;;;3.70;99.90;;;;;;5059455;28;20245;-76
2024/01/25 07:38:15;;;;;;;5.75;5.28;;;3.70;99.90;;;;;;5054753;28;20233;-76
2024/01/25 07:40:42;;;;;;;5.63;5.22;;;3.80;99.90;;;;;;5055624;28;20317;-76
2024/01/25 07:43:09;;;;;;;5.50;5.10;;;3.90;99.90;;;;;;5057399;28;20234;-73
2024/01/25 07:45:36;;;;;;;5.70;5.28;;;3.90;99.90;;;;;;5053624;28;20249;-76
2024/01/25 07:48:03;;;;;;;5.70;5.20;;;3.90;99.90;;;;;;5055875;28;20703;-76
2024/01/25 07:50:30;;;;;;;6.15;5.65;;;3.90;99.90;;;;;;5057897;28;20250;-76
2024/01/25 07:53:00;;;;;;;5.53;5.13;;;4.00;99.90;;;;;;5054764;28;20575;-77
2024/01/25 07:55:29;;;;;;;5.28;4.88;;;4.00;99.90;;;;;;5055055;28;20222;-77
2024/01/25 07:57:56;;;;;;;6.07;5.57;;;4.10;99.90;;;;;;5053758;28;20261;-75
2024/01/25 08:00:23;;;;;;;5.63;5.22;;;4.20;99.90;;;;;;5054694;28;21027;-76
2024/01/25 08:02:50;;;;;;;5.50;5.10;;;4.30;99.90;;;;;;5059627;28;20198;-76
2024/01/25 08:05:17;;;;;;;5.97;5.47;;;4.40;99.90;;;;;;5056866;28;20250;-77
2024/01/25 08:07:46;;;;;;;5.97;5.47;;;4.50;99.90;;;;;;5055013;28;20335;-77
2024/01/25 08:10:13;;;;;;;7.18;6.50;;;4.50;99.90;;;;;;5056222;28;20248;-75
2024/01/25 08:12:43;;;;;;;6.47;5.88;;;4.50;99.90;;;;;;5053998;28;20203;-76
2024/01/25 08:15:11;;;;;;;6.10;5.60;;;4.60;99.90;;;;;;5058865;28;20779;-77
2024/01/25 08:17:38;;;;;;;5.85;5.35;;;4.90;99.90;;;;;;5050982;28;20327;-76
2024/01/25 08:20:07;;;;;;;6.15;5.65;;;5.30;99.90;;;;;;5056522;28;20230;-74
2024/01/25 08:22:34;;;;;;;6.25;5.65;;;6.30;99.90;;;;;;5056481;28;20214;-76
2024/01/25 08:25:04;;;;;;;5.72;5.15;;;7.50;99.90;;;;;;5053851;28;20253;-76
2024/01/25 08:27:31;;;;;;;6.43;5.82;;;8.20;99.90;;;;;;5055481;28;20226;-75
2024/01/25 08:29:58;;;;;;;6.60;6.00;;;8.40;99.90;;;;;;5058573;28;20855;-76
2024/01/25 08:32:25;;;;;;;5.93;5.28;;;8.60;99.90;;;;;;5056867;28;20304;-77
2024/01/25 08:34:52;;;;;;;7.90;7.20;;;8.60;99.90;;;;;;5056998;28;20739;-75
2024/01/25 08:37:18;;;;;;;7.38;6.68;;;8.40;99.90;;;;;;5055691;28;20743;-76
2024/01/25 08:39:49;;;;;;;6.57;5.97;;;8.10;99.90;;;;;;5056309;28;20241;-76
2024/01/25 08:42:17;;;;;;;9.15;6.85;;;7.90;99.90;;;;;;5058199;28;20198;-76
2024/01/25 08:44:48;;;;;;;7.10;6.40;;;7.80;99.90;;;;;;5062726;28;20245;-76
2024/01/25 08:47:16;;;;;;;8.00;7.20;;;7.70;99.90;;;;;;5056743;28;20458;-76
2024/01/25 08:49:43;;;;;;;6.68;6.03;;;7.60;99.90;;;;;;5057509;28;20894;-75
2024/01/25 08:52:10;;;;;;;6.60;6.00;;;7.40;99.90;;;;;;5056275;28;20229;-77
2024/01/25 08:54:38;;;;;;;8.00;6.13;;;7.30;99.90;;;;;;5056926;28;20682;-76
2024/01/25 08:57:06;;;;;;;8.23;6.15;;;7.30;99.90;;;;;;5058552;28;20236;-75
2024/01/25 08:59:37;;;;;;;7.05;6.35;;;7.40;99.90;;;;;;5051046;28;20326;-75
2024/01/25 09:02:05;;;;;;;7.93;7.20;;;8.00;99.90;;;;;;5057430;28;20202;-77
2024/01/25 09:04:32;;;;;;;8.82;7.00;;;8.60;99.90;;;;;;5055275;28;20203;-76
2024/01/25 09:06:59;;;;;;;8.00;7.18;;;8.90;99.90;;;;;;5055967;28;20223;-76
2024/01/25 09:09:26;;;;;;;8.50;7.68;;;9.30;99.90;;;;;;5052301;28;20230;-76
2024/01/25 09:11:53;;;;;;;7.20;6.50;;;9.30;99.90;;;;;;5057908;28;20206;-77
2024/01/25 09:14:21;;;;;;;10.20;6.70;;;9.20;99.90;;;;;;5054117;28;20293;-78
2024/01/25 09:16:49;;;;;;;7.78;7.07;;;9.10;99.90;;;;;;5053798;28;20227;-77
2024/01/25 09:19:16;;;;;;;6.90;6.20;;;9.20;99.90;;;;;;5058272;28;20252;-77
2024/01/25 09:21:43;;;;;;;7.50;6.75;;;9.50;99.90;;;;;;5052054;28;20254;-77
2024/01/25 09:24:10;;;;;;;7.65;6.95;;;9.70;99.90;;;;;;5058343;28;20260;-76
2024/01/25 09:26:37;;;;;;;7.75;6.60;;;10.20;99.90;;;;;;5057695;28;20368;-75
2024/01/25 09:29:04;;;;;;;6.75;6.05;;;10.50;99.90;;;;;;5054092;28;20277;-76
2024/01/25 09:31:31;;;;;;;7.72;6.43;;;10.40;99.90;;;;;;5058429;28;20218;-77
2024/01/25 09:33:59;;;;;;;7.30;6.57;;;10.00;99.90;;;;;;5052309;28;20237;-76
2024/01/25 09:36:26;;;;;;;6.68;5.97;;;10.60;99.90;;;;;;5056270;28;20254;-76
2024/01/25 09:38:53;;;;;;;7.20;6.50;;;12.10;99.90;;;;;;5059764;28;20275;-77
2024/01/25 09:41:20;;;;;;;7.43;6.75;;;13.40;99.90;;;;;;5052856;28;20253;-77
2024/01/25 09:43:47;;;;;;;7.03;6.32;;;14.20;99.90;;;;;;5057096;28;20682;-76
2024/01/25 09:46:15;;;;;;;7.65;6.75;;;14.10;99.90;;;;;;5059721;28;20265;-77
2024/01/25 09:48:43;;;;;;;7.55;6.50;;;14.00;99.90;;;;;;5053408;28;20203;-77
2024/01/25 09:51:13;;;;;;;7.93;6.47;;;13.70;99.90;;;;;;5052488;28;20700;-77
2024/01/25 09:53:41;;;;;;;7.95;6.57;;;13.30;99.90;;;;;;5054823;28;20191;-76
2024/01/25 09:56:09;;;;;;;7.50;6.70;;;13.10;99.90;;;;;;5058353;28;20566;-76
2024/01/25 09:58:40;;;;;;;7.57;6.78;;;13.00;99.90;;;;;;5053270;28;20288;-78
2024/01/25 10:01:10;;;;;;;7.72;6.80;;;12.80;99.90;;;;;;5053143;28;20851;-78
2024/01/25 10:03:39;;;;;;;7.90;7.10;;;12.80;99.90;;;;;;5056288;28;20289;-76
2024/01/25 10:06:07;;;;;;;7.45;6.70;;;12.80;99.90;;;;;;5052885;28;20763;-76
2024/01/25 10:08:35;;;;;;;6.57;5.88;;;12.80;99.90;;;;;;5054671;28;20221;-78
2024/01/25 10:11:02;;;;;;;6.88;5.88;;;12.50;99.90;;;;;;5050067;28;20238;-76
2024/01/25 10:13:29;;;;;;;7.32;6.63;;;12.30;99.90;;;;;;5053407;28;20751;-77
2024/01/25 10:15:56;;;;;;;7.38;6.68;;;12.30;99.90;;;;;;5051671;28;20317;-76
2024/01/25 10:18:24;;;;;;;7.43;6.82;;;12.50;99.90;;;;;;5054428;28;20242;-76
2024/01/25 10:20:51;;;;;;;7.40;6.63;;;12.40;99.90;;;;;;5051456;28;20860;-78
2024/01/25 10:23:18;;;;;;;8.02;7.22;;;12.30;99.90;;;;;;5052984;28;20275;-75
2024/01/25 10:25:46;;;;;;;8.02;6.40;;;12.30;99.90;;;;;;5053955;28;20288;-76
2024/01/25 10:28:13;;;;;;;7.72;6.97;;;12.60;99.90;;;;;;5059296;28;20218;-77
2024/01/25 10:30:40;;;;;;;10.23;7.43;;;12.90;99.90;;;;;;5053997;28;20230;-77
2024/01/25 10:33:10;;;;;;;7.05;6.38;;;13.00;99.90;;;;;;5056285;28;20195;-79
2024/01/25 10:35:38;;;;;;;6.63;5.95;;;12.70;99.90;;;;;;5055234;28;20257;-78
2024/01/25 10:38:05;;;;;;;8.55;7.75;;;12.20;99.90;;;;;;5052411;28;20284;-79
2024/01/25 10:40:32;;;;;;;8.25;6.88;;;12.10;99.90;;;;;;5052907;28;20205;-79
2024/01/25 10:43:01;;;;;;;9.43;7.43;;;12.00;99.90;;;;;;5056265;28;20298;-78
2024/01/25 10:45:28;;;;;;;8.30;7.45;;;12.00;99.90;;;;;;5058970;28;20245;-78
2024/01/25 10:47:55;;;;;;;8.07;7.18;;;11.90;99.90;;;;;;5051347;28;20340;-77
2024/01/25 10:50:24;;;;;;;7.35;6.65;;;11.80;99.90;;;;;;5049618;28;20220;-77
2024/01/25 10:52:51;;;;;;;6.97;6.28;;;11.80;99.90;;;;;;5057642;28;20729;-77
2024/01/25 10:55:18;;;;;;;8.50;7.03;;;11.90;99.90;;;;;;5052087;28;20317;-79
2024/01/25 10:57:48;;;;;;;7.10;6.45;;;11.80;99.90;;;;;;5056202;28;20226;-79
2024/01/25 11:00:17;;;;;;;6.78;6.18;;;11.70;99.90;;;;;;5052141;28;20663;-77
2024/01/25 11:02:45;;;;;;;6.97;6.32;;;11.70;99.90;;;;;;5058119;28;20201;-78
2024/01/25 11:05:13;;;;;;;6.10;5.57;;;11.40;99.90;;;;;;5054203;28;20539;-77
2024/01/25 11:07:45;;;;;;;6.68;5.95;;;11.30;99.90;;;;;;5057908;28;20311;-77
2024/01/25 11:10:19;;;;;;;5.55;5.07;;;11.60;99.90;;;;;;5051410;28;20249;-76
2024/01/25 11:12:56;;;;;;;6.03;5.53;;;11.90;99.90;;;;;;5056330;28;20290;-78
2024/01/25 11:15:32;;;;;;;6.63;6.03;;;12.00;99.90;;;;;;5054335;28;20249;-78
2024/01/25 11:17:59;;;;;;;7.47;6.18;;;12.20;99.90;;;;;;5053454;28;20353;-76
2024/01/25 11:20:29;;;;;;;7.05;6.35;;;12.20;99.90;;;;;;5052083;28;20344;-77
2024/01/25 11:22:59;;;;;;;6.22;5.63;;;12.50;99.90;;;;;;5053792;28;20233;-79
2024/01/25 11:25:28;;;;;;;7.55;5.78;;;12.50;99.90;;;;;;5055215;28;20217;-75
2024/01/25 11:27:55;;;;;;;5.75;5.25;;;12.50;99.90;;;;;;5055110;28;20321;-76
2024/01/25 11:30:23;;;;;;;6.65;6.03;;;12.50;99.90;;;;;;5052538;28;20250;-76
2024/01/25 11:32:50;;;;;;;7.47;6.50;;;12.50;99.90;;;;;;5052721;28;21079;-75
2024/01/25 11:35:18;;;;;;;6.70;5.75;;;12.00;99.90;;;;;;5053265;28;20250;-77
2024/01/25 11:37:46;;;;;;;6.20;5.60;;;11.80;99.90;;;;;;5053371;28;20218;-77
2024/01/25 11:40:13;;;;;;;6.53;5.80;;;11.80;99.90;;;;;;5049336;28;22139;-77
2024/01/25 11:42:43;;;;;;;8.63;6.00;;;11.80;99.90;;;;;;5052884;28;20194;-78
2024/01/25 11:45:12;;;;;;;6.53;5.93;;;11.90;99.90;;;;;;5050679;28;20330;-78
2024/01/25 11:47:41;;;;;;;7.45;6.60;;;12.00;99.90;;;;;;5052289;28;20261;-76
2024/01/25 11:50:09;;;;;;;6.65;5.95;;;12.00;99.90;;;;;;5052145;28;21346;-76
2024/01/25 11:52:36;;;;;;;7.70;6.97;;;12.20;99.90;;;;;;5054226;28;20283;-77
2024/01/25 11:55:03;;;;;;;7.30;6.57;;;12.40;99.90;;;;;;5055323;28;20307;-78
2024/01/25 11:57:31;;;;;;;6.80;6.20;;;12.60;99.90;;;;;;5056237;28;20693;-77
2024/01/25 11:59:59;;;;;;;7.90;7.07;;;12.90;99.90;;;;;;5051330;28;20215;-76
2024/01/25 12:02:27;;;;;;;8.75;6.93;;;12.90;99.90;;;;;;5056560;28;20788;-77
2024/01/25 12:04:57;;;;;;;8.02;7.25;;;12.70;99.90;;;;;;5051818;28;20249;-76
2024/01/25 12:07:24;;;;;;;8.52;7.72;;;12.70;99.90;;;;;;5053911;28;20230;-77
2024/01/25 12:09:59;;;;;;;8.02;7.22;;;12.70;99.90;;;;;;5052775;28;20981;-75
2024/01/25 12:12:26;;;;;;;8.50;7.28;;;12.50;99.90;;;;;;5053497;28;20291;-77
2024/01/25 12:14:59;;;;;;;8.73;7.82;;;12.20;99.90;;;;;;5052239;28;20221;-78
2024/01/25 12:17:28;;;;;;;10.15;8.60;;;12.10;99.90;;;;;;5049741;28;20226;-78
2024/01/25 12:19:57;;;;;;;9.63;8.30;;;12.30;99.90;;;;;;5050184;28;20232;-75
2024/01/25 12:22:25;;;;;;;7.97;7.22;;;12.50;99.90;;;;;;5057828;28;20250;-76
2024/01/25 12:24:54;;;;;;;8.05;7.25;;;12.60;99.90;;;;;;5054454;28;20238;-77
2024/01/25 12:27:22;;;;;;;10.27;8.15;;;12.70;99.90;;;;;;5054118;28;20237;-77
2024/01/25 12:29:49;;;;;;;8.60;7.80;;;12.90;99.90;;;;;;5053491;28;20590;-77
2024/01/25 12:32:16;;;;;;;8.98;7.85;;;13.20;99.90;;;;;;5039525;28;20227;-75
2024/01/25 12:34:44;;;;;;;8.55;7.72;;;13.40;99.90;;;;;;5038018;28;20245;-77
2024/01/25 12:37:12;;;;;;;8.10;7.38;;;13.60;99.90;;;;;;5053885;28;20895;-76
2024/01/25 12:39:40;;;;;;;7.22;6.57;;;13.80;99.90;;;;;;5057305;28;20279;-77
2024/01/25 12:42:07;;;;;;;7.22;6.03;;;13.70;99.90;;;;;;5057418;28;20766;-77
2024/01/25 12:44:34;;;;;;;7.78;6.45;;;13.60;99.90;;;;;;5062173;28;20290;-78
2024/01/25 12:47:02;;;;;;;7.45;6.68;;;13.60;99.90;;;;;;5058915;28;20234;-77
2024/01/25 12:49:29;;;;;;;7.85;6.50;;;13.70;99.90;;;;;;5064045;28;20297;-77
2024/01/25 12:51:56;;;;;;;7.15;6.38;;;13.80;99.90;;;;;;5064984;28;20581;-77
2024/01/25 12:54:25;;;;;;;7.03;6.35;;;13.70;99.90;;;;;;5061484;28;20201;-76
2024/01/25 12:56:52;;;;;;;7.07;6.38;;;13.50;99.90;;;;;;5062590;28;20284;-76